Higgins, TX (79046)

08:34 PM CDT del 21 Ottobre 2014 (GMT -0500)
Barnes - Farm | Change Station
CLOSE
Current Station
Stazione meteo personale
Location: Gage, OK
Altitudine: 2220 ft
Stazioni meteo nelle vicinanze

Alt. 2220 ft 36.28 °N, 99.80 °W | Updated 2 seconds ago

Sereno
Sereno
65.2 °F
Sembra 65.2 °F
N
7.0
Vento Variabile Vento da SSE
Gusts 8.0 mph

Oggi
Massima -- | Minima -- °F
--% Possibilità di precip.
Ieri
Massima -- | Minima -- °F
Precip. -- in
7:52 AM 6:56 PM
Luna calante, 3% visible
Pressione 29.99 in
Visibilità 10.0 miglia
Nuvole Sereno
Punto di rugiada 55 °F
Umidità 70%
Piovosità 0.00 in
Spessore del manto nevoso Non disponibile.
Raggi UV 0.0 fuori da 12
Polline 5.60 fuori da 12
Qualità dell'aria Non disponibile.
Flu Activity Sporadic
METAR KGAG 220053Z AUTO 16008KT 10SM CLR 19/12 A3003 RMK AO2 SLP156 T01890122

More Conditions Fewer Conditions

Pressione 29.99 in
Visibilità 10.0 miglia
Nuvole Sereno
Punto di rugiada 55 °F
Umidità 70%
Piovosità 0.00 in
Spessore del manto nevoso Non disponibile.
Raggi UV 0.0 fuori da 12
Polline 5.60 fuori da 12
Qualità dell'aria Non disponibile.
Flu Activity Sporadic
METAR KGAG 220053Z AUTO 16008KT 10SM CLR 19/12 A3003 RMK AO2 SLP156 T01890122

More Conditions Fewer Conditions

10-Day Weather Forecast

Almanac

Astronomia

Oct. 21, 2014 Alba Tramonto
Ora attuale 07:52 CDT 18:56 CDT
Crepuscolo civile 07:26 CDT 19:22 CDT
Crepuscolo nautico 06:56 CDT 19:52 CDT
Crepuscolo astronomico 06:26 CDT 20:22 CDT
Luna 05:42 CDT (10/21) 17:48 CDT (10/21)
Estensione della luce visibile 11h 56m
Lunghezza del giorno
11h 04m
Tomorrow will be 2m 8s shorter.
Luna calante, 3% of the Moon is Illuminated
Oggi
Luna calante
Ott 23
Nuovo
Ott 30
Primo quarto
Nov 6
Luna piena
Nov 14
Ultimo quarto

Gli estremi di oggi

State Highs State Lows

Community

WunderPhotos

Upload Photos

1,763,844 foto caricate!

Nearby

Profondità neve

Stazione Profondità Altitudine
Non sono state evidenziate nuove nevicate

Attività sismica

Città  Distanza Mag. Data & Ora
Mooreland, Oklahoma 61 miglia 2.6 11:34 CDT
2014-10-21
Mooreland, Oklahoma 61 miglia 2.7 11:18 CDT
2014-10-21
Cherokee, Oklahoma 115 miglia 2.5 08:27 CDT
2014-10-21
Helena, Oklahoma 110 miglia 3.0 10:35 CDT
2014-10-20
Minimo Magnitudo Mostrato è 2.5.

Temperature delle acque costiere

Località Temperatura
Nessun dato dalle stazioni

Stazioni meteo nelle vicinanze